sensor_id;sensor_type;location;lat;lon;timestamp;P1;durP1;ratioP1;P2;durP2;ratioP2
9384;SDS011;4732;49.340;10.886;2023-04-24T03:02:34;0.88;;;0.85;;
9384;SDS011;4732;49.340;10.886;2023-04-24T03:04:59;1.63;;;1.20;;
9384;SDS011;4732;49.340;10.886;2023-04-24T03:07:25;2.45;;;0.80;;
9384;SDS011;4732;49.340;10.886;2023-04-24T03:09:51;1.08;;;0.90;;
9384;SDS011;4732;49.340;10.886;2023-04-24T03:12:16;2.50;;;0.90;;
9384;SDS011;4732;49.340;10.886;2023-04-24T03:14:43;1.15;;;0.93;;
9384;SDS011;4732;49.340;10.886;2023-04-24T03:17:08;0.90;;;0.70;;
9384;SDS011;4732;49.340;10.886;2023-04-24T03:19:34;2.35;;;0.88;;
9384;SDS011;4732;49.340;10.886;2023-04-24T03:22:01;1.42;;;0.70;;
9384;SDS011;4732;49.340;10.886;2023-04-24T03:24:27;1.42;;;0.80;;
9384;SDS011;4732;49.340;10.886;2023-04-24T03:26:53;1.42;;;0.98;;
9384;SDS011;4732;49.340;10.886;2023-04-24T03:29:18;0.90;;;0.90;;
9384;SDS011;4732;49.340;10.886;2023-04-24T03:31:44;1.42;;;0.90;;
9384;SDS011;4732;49.340;10.886;2023-04-24T03:34:09;1.13;;;0.80;;
9384;SDS011;4732;49.340;10.886;2023-04-24T03:36:35;1.67;;;1.17;;
9384;SDS011;4732;49.340;10.886;2023-04-24T03:39:00;2.80;;;1.02;;
9384;SDS011;4732;49.340;10.886;2023-04-24T03:41:26;0.70;;;0.70;;
9384;SDS011;4732;49.340;10.886;2023-04-24T03:43:51;1.20;;;0.82;;
9384;SDS011;4732;49.340;10.886;2023-04-24T03:46:17;1.25;;;0.90;;
9384;SDS011;4732;49.340;10.886;2023-04-24T03:48:42;2.10;;;1.00;;
9384;SDS011;4732;49.340;10.886;2023-04-24T03:51:08;2.67;;;1.20;;
9384;SDS011;4732;49.340;10.886;2023-04-24T03:53:33;1.33;;;1.00;;
9384;SDS011;4732;49.340;10.886;2023-04-24T03:55:59;0.98;;;0.88;;
9384;SDS011;4732;49.340;10.886;2023-04-24T03:58:24;1.42;;;0.98;;
9384;SDS011;4732;49.340;10.886;2023-04-24T04:00:50;1.85;;;0.88;;
9384;SDS011;4732;49.340;10.886;2023-04-24T04:03:16;0.70;;;0.70;;
9384;SDS011;4732;49.340;10.886;2023-04-24T04:05:41;1.33;;;0.80;;
9384;SDS011;4732;49.340;10.886;2023-04-24T04:08:07;1.48;;;1.02;;
9384;SDS011;4732;49.340;10.886;2023-04-24T04:10:32;0.82;;;0.82;;
9384;SDS011;4732;49.340;10.886;2023-04-24T04:12:58;1.35;;;1.00;;
9384;SDS011;4732;49.340;10.886;2023-04-24T04:15:23;1.60;;;1.33;;
9384;SDS011;4732;49.340;10.886;2023-04-24T04:17:49;1.38;;;1.20;;
9384;SDS011;4732;49.340;10.886;2023-04-24T04:20:14;1.63;;;1.00;;
9384;SDS011;4732;49.340;10.886;2023-04-24T04:22:40;1.13;;;1.02;;
9384;SDS011;4732;49.340;10.886;2023-04-24T04:25:05;2.60;;;0.93;;
9384;SDS011;4732;49.340;10.886;2023-04-24T04:27:31;2.35;;;1.00;;
9384;SDS011;4732;49.340;10.886;2023-04-24T04:29:58;1.30;;;1.00;;
9384;SDS011;4732;49.340;10.886;2023-04-24T04:32:27;1.77;;;1.00;;
9384;SDS011;4732;49.340;10.886;2023-04-24T04:34:53;2.92;;;0.82;;
9384;SDS011;4732;49.340;10.886;2023-04-24T04:37:18;1.20;;;0.98;;
9384;SDS011;4732;49.340;10.886;2023-04-24T04:39:44;0.93;;;0.80;;
9384;SDS011;4732;49.340;10.886;2023-04-24T04:42:10;1.33;;;0.95;;
9384;SDS011;4732;49.340;10.886;2023-04-24T04:44:35;1.27;;;1.17;;
9384;SDS011;4732;49.340;10.886;2023-04-24T04:47:01;1.75;;;1.02;;
9384;SDS011;4732;49.340;10.886;2023-04-24T04:49:30;2.58;;;1.02;;
9384;SDS011;4732;49.340;10.886;2023-04-24T04:51:59;1.88;;;0.75;;
9384;SDS011;4732;49.340;10.886;2023-04-24T04:54:25;0.73;;;0.73;;
9384;SDS011;4732;49.340;10.886;2023-04-24T04:56:50;1.35;;;0.82;;
9384;SDS011;4732;49.340;10.886;2023-04-24T04:59:16;0.90;;;0.80;;
9384;SDS011;4732;49.340;10.886;2023-04-24T05:01:41;1.00;;;0.85;;
9384;SDS011;4732;49.340;10.886;2023-04-24T05:04:07;1.42;;;1.02;;
9384;SDS011;4732;49.340;10.886;2023-04-24T05:06:32;1.88;;;1.00;;
9384;SDS011;4732;49.340;10.886;2023-04-24T05:08:58;2.35;;;1.05;;
9384;SDS011;4732;49.340;10.886;2023-04-24T05:11:23;1.73;;;1.10;;
9384;SDS011;4732;49.340;10.886;2023-04-24T05:13:49;1.58;;;1.08;;
9384;SDS011;4732;49.340;10.886;2023-04-24T05:16:15;1.90;;;1.00;;
9384;SDS011;4732;49.340;10.886;2023-04-24T05:18:40;1.17;;;1.00;;
9384;SDS011;4732;49.340;10.886;2023-04-24T05:21:06;2.70;;;1.10;;
9384;SDS011;4732;49.340;10.886;2023-04-24T05:23:31;1.92;;;1.30;;
9384;SDS011;4732;49.340;10.886;2023-04-24T05:25:57;1.13;;;0.93;;
9384;SDS011;4732;49.340;10.886;2023-04-24T05:28:22;1.25;;;0.82;;
9384;SDS011;4732;49.340;10.886;2023-04-24T05:30:48;2.15;;;1.30;;
9384;SDS011;4732;49.340;10.886;2023-04-24T05:33:13;2.25;;;1.10;;
9384;SDS011;4732;49.340;10.886;2023-04-24T05:35:40;3.85;;;1.30;;
9384;SDS011;4732;49.340;10.886;2023-04-24T05:38:10;1.55;;;1.17;;
9384;SDS011;4732;49.340;10.886;2023-04-24T05:40:36;2.13;;;1.30;;
9384;SDS011;4732;49.340;10.886;2023-04-24T05:43:01;1.77;;;1.15;;
9384;SDS011;4732;49.340;10.886;2023-04-24T05:45:27;3.83;;;1.08;;
9384;SDS011;4732;49.340;10.886;2023-04-24T05:47:52;1.50;;;1.40;;
9384;SDS011;4732;49.340;10.886;2023-04-24T05:50:18;3.03;;;1.20;;
9384;SDS011;4732;49.340;10.886;2023-04-24T05:52:44;1.33;;;1.10;;
9384;SDS011;4732;49.340;10.886;2023-04-24T05:55:09;1.92;;;1.27;;
9384;SDS011;4732;49.340;10.886;2023-04-24T05:57:35;3.67;;;1.15;;
9384;SDS011;4732;49.340;10.886;2023-04-24T06:00:00;1.42;;;1.13;;
9384;SDS011;4732;49.340;10.886;2023-04-24T06:02:26;3.25;;;1.15;;
9384;SDS011;4732;49.340;10.886;2023-04-24T06:04:52;1.58;;;1.05;;
9384;SDS011;4732;49.340;10.886;2023-04-24T06:07:17;1.45;;;1.30;;
9384;SDS011;4732;49.340;10.886;2023-04-24T06:09:43;1.17;;;0.98;;
9384;SDS011;4732;49.340;10.886;2023-04-24T06:12:09;0.80;;;0.80;;
9384;SDS011;4732;49.340;10.886;2023-04-24T06:14:34;2.05;;;1.25;;
9384;SDS011;4732;49.340;10.886;2023-04-24T06:17:00;1.95;;;1.00;;
9384;SDS011;4732;49.340;10.886;2023-04-24T06:19:25;1.33;;;1.08;;
9384;SDS011;4732;49.340;10.886;2023-04-24T06:21:51;1.35;;;1.10;;
9384;SDS011;4732;49.340;10.886;2023-04-24T06:24:16;1.45;;;0.98;;
9384;SDS011;4732;49.340;10.886;2023-04-24T06:26:42;4.78;;;1.00;;
9384;SDS011;4732;49.340;10.886;2023-04-24T06:29:08;3.05;;;0.90;;
9384;SDS011;4732;49.340;10.886;2023-04-24T06:31:33;3.08;;;1.40;;
9384;SDS011;4732;49.340;10.886;2023-04-24T06:34:02;3.75;;;1.30;;
9384;SDS011;4732;49.340;10.886;2023-04-24T06:36:28;1.92;;;0.80;;
9384;SDS011;4732;49.340;10.886;2023-04-24T06:38:54;4.18;;;0.80;;
9384;SDS011;4732;49.340;10.886;2023-04-24T06:41:19;2.88;;;0.70;;
9384;SDS011;4732;49.340;10.886;2023-04-24T06:43:45;1.15;;;0.63;;
9384;SDS011;4732;49.340;10.886;2023-04-24T06:46:10;0.98;;;0.75;;
9384;SDS011;4732;49.340;10.886;2023-04-24T06:48:36;0.63;;;0.63;;
9384;SDS011;4732;49.340;10.886;2023-04-24T06:51:02;1.13;;;0.52;;
9384;SDS011;4732;49.340;10.886;2023-04-24T06:53:28;1.50;;;0.60;;
9384;SDS011;4732;49.340;10.886;2023-04-24T06:55:53;0.70;;;0.60;;
9384;SDS011;4732;49.340;10.886;2023-04-24T06:58:19;2.55;;;0.50;;
9384;SDS011;4732;49.340;10.886;2023-04-24T07:00:45;0.95;;;0.70;;
9384;SDS011;4732;49.340;10.886;2023-04-24T07:03:11;1.02;;;0.63;;
9384;SDS011;4732;49.340;10.886;2023-04-24T07:05:36;1.35;;;0.70;;
9384;SDS011;4732;49.340;10.886;2023-04-24T07:08:03;0.88;;;0.82;;
9384;SDS011;4732;49.340;10.886;2023-04-24T07:10:28;1.25;;;0.70;;
9384;SDS011;4732;49.340;10.886;2023-04-24T07:12:55;5.45;;;0.95;;
9384;SDS011;4732;49.340;10.886;2023-04-24T07:15:23;1.20;;;0.95;;
9384;SDS011;4732;49.340;10.886;2023-04-24T07:17:49;1.80;;;0.90;;
9384;SDS011;4732;49.340;10.886;2023-04-24T07:20:15;2.05;;;1.30;;
9384;SDS011;4732;49.340;10.886;2023-04-24T07:22:40;0.93;;;0.90;;
9384;SDS011;4732;49.340;10.886;2023-04-24T07:25:06;2.10;;;1.40;;
9384;SDS011;4732;49.340;10.886;2023-04-24T07:27:32;1.50;;;1.13;;
9384;SDS011;4732;49.340;10.886;2023-04-24T07:29:59;1.73;;;1.40;;
9384;SDS011;4732;49.340;10.886;2023-04-24T07:32:24;2.28;;;1.60;;
9384;SDS011;4732;49.340;10.886;2023-04-24T07:34:50;1.52;;;1.38;;
9384;SDS011;4732;49.340;10.886;2023-04-24T07:37:15;2.78;;;1.40;;
9384;SDS011;4732;49.340;10.886;2023-04-24T07:39:41;1.70;;;1.30;;
9384;SDS011;4732;49.340;10.886;2023-04-24T07:42:07;2.50;;;1.73;;
9384;SDS011;4732;49.340;10.886;2023-04-24T07:44:32;3.95;;;1.85;;
9384;SDS011;4732;49.340;10.886;2023-04-24T07:46:58;4.93;;;1.73;;
9384;SDS011;4732;49.340;10.886;2023-04-24T07:49:23;1.92;;;1.73;;
9384;SDS011;4732;49.340;10.886;2023-04-24T07:51:49;2.75;;;1.50;;
9384;SDS011;4732;49.340;10.886;2023-04-24T07:54:15;4.90;;;2.10;;
9384;SDS011;4732;49.340;10.886;2023-04-24T07:56:41;2.35;;;1.67;;
9384;SDS011;4732;49.340;10.886;2023-04-24T07:59:07;4.18;;;1.95;;
9384;SDS011;4732;49.340;10.886;2023-04-24T08:01:35;2.25;;;1.73;;
9384;SDS011;4732;49.340;10.886;2023-04-24T08:04:00;2.33;;;1.80;;
9384;SDS011;4732;49.340;10.886;2023-04-24T08:06:26;3.55;;;1.80;;
9384;SDS011;4732;49.340;10.886;2023-04-24T08:08:55;5.32;;;2.15;;
9384;SDS011;4732;49.340;10.886;2023-04-24T08:11:21;3.25;;;1.88;;
9384;SDS011;4732;49.340;10.886;2023-04-24T08:13:46;4.13;;;2.30;;
9384;SDS011;4732;49.340;10.886;2023-04-24T08:16:12;2.40;;;1.90;;
9384;SDS011;4732;49.340;10.886;2023-04-24T08:18:37;2.80;;;2.00;;
9384;SDS011;4732;49.340;10.886;2023-04-24T08:21:03;2.78;;;2.08;;
9384;SDS011;4732;49.340;10.886;2023-04-24T08:23:29;3.42;;;2.00;;
9384;SDS011;4732;49.340;10.886;2023-04-24T08:25:54;3.40;;;2.22;;
9384;SDS011;4732;49.340;10.886;2023-04-24T08:28:20;3.25;;;2.03;;
9384;SDS011;4732;49.340;10.886;2023-04-24T08:30:46;2.90;;;2.30;;
9384;SDS011;4732;49.340;10.886;2023-04-24T08:33:12;2.30;;;2.15;;
9384;SDS011;4732;49.340;10.886;2023-04-24T08:35:38;6.05;;;2.35;;
9384;SDS011;4732;49.340;10.886;2023-04-24T08:38:04;2.03;;;1.80;;
9384;SDS011;4732;49.340;10.886;2023-04-24T08:40:30;2.85;;;2.00;;
9384;SDS011;4732;49.340;10.886;2023-04-24T08:42:59;3.10;;;2.10;;
9384;SDS011;4732;49.340;10.886;2023-04-24T08:45:25;2.90;;;1.75;;
9384;SDS011;4732;49.340;10.886;2023-04-24T08:47:54;2.45;;;1.90;;
9384;SDS011;4732;49.340;10.886;2023-04-24T08:50:20;2.60;;;1.65;;
9384;SDS011;4732;49.340;10.886;2023-04-24T08:52:47;3.60;;;2.13;;
9384;SDS011;4732;49.340;10.886;2023-04-24T08:55:14;3.22;;;2.10;;
9384;SDS011;4732;49.340;10.886;2023-04-24T08:57:43;2.88;;;1.75;;
9384;SDS011;4732;49.340;10.886;2023-04-24T09:00:10;4.15;;;1.70;;
9384;SDS011;4732;49.340;10.886;2023-04-24T09:02:36;1.52;;;1.42;;
9384;SDS011;4732;49.340;10.886;2023-04-24T09:05:04;1.73;;;1.52;;
9384;SDS011;4732;49.340;10.886;2023-04-24T09:07:30;2.05;;;1.55;;
9384;SDS011;4732;49.340;10.886;2023-04-24T09:09:58;2.22;;;1.67;;
9384;SDS011;4732;49.340;10.886;2023-04-24T09:12:24;3.72;;;1.92;;
9384;SDS011;4732;49.340;10.886;2023-04-24T09:14:50;1.65;;;1.50;;
9384;SDS011;4732;49.340;10.886;2023-04-24T09:17:16;1.95;;;1.50;;
9384;SDS011;4732;49.340;10.886;2023-04-24T09:19:41;2.17;;;1.65;;
9384;SDS011;4732;49.340;10.886;2023-04-24T09:22:07;2.13;;;1.58;;
9384;SDS011;4732;49.340;10.886;2023-04-24T09:24:34;2.58;;;1.70;;
9384;SDS011;4732;49.340;10.886;2023-04-24T09:27:00;1.73;;;1.50;;
9384;SDS011;4732;49.340;10.886;2023-04-24T09:29:26;3.53;;;1.50;;
9384;SDS011;4732;49.340;10.886;2023-04-24T09:31:52;1.30;;;1.20;;
9384;SDS011;4732;49.340;10.886;2023-04-24T09:34:21;1.60;;;1.20;;
9384;SDS011;4732;49.340;10.886;2023-04-24T09:36:50;2.78;;;1.58;;
9384;SDS011;4732;49.340;10.886;2023-04-24T09:39:16;1.67;;;1.33;;
9384;SDS011;4732;49.340;10.886;2023-04-24T09:42:03;2.88;;;1.40;;
9384;SDS011;4732;49.340;10.886;2023-04-24T09:44:28;1.70;;;1.10;;
9384;SDS011;4732;49.340;10.886;2023-04-24T09:46:55;2.00;;;1.42;;
9384;SDS011;4732;49.340;10.886;2023-04-24T09:52:07;5.25;;;1.23;;
9384;SDS011;4732;49.340;10.886;2023-04-24T09:54:34;2.30;;;1.23;;
9384;SDS011;4732;49.340;10.886;2023-04-24T09:57:01;2.78;;;1.25;;
9384;SDS011;4732;49.340;10.886;2023-04-24T09:59:27;5.50;;;1.30;;
9384;SDS011;4732;49.340;10.886;2023-04-24T10:01:53;2.05;;;1.20;;
9384;SDS011;4732;49.340;10.886;2023-04-24T10:04:19;3.17;;;1.23;;
9384;SDS011;4732;49.340;10.886;2023-04-24T10:06:45;1.45;;;0.90;;
9384;SDS011;4732;49.340;10.886;2023-04-24T10:09:13;3.00;;;1.20;;
9384;SDS011;4732;49.340;10.886;2023-04-24T10:11:41;3.83;;;0.98;;
9384;SDS011;4732;49.340;10.886;2023-04-24T10:14:13;1.60;;;1.10;;
9384;SDS011;4732;49.340;10.886;2023-04-24T10:16:40;1.45;;;0.80;;
9384;SDS011;4732;49.340;10.886;2023-04-24T10:19:07;3.25;;;1.05;;
9384;SDS011;4732;49.340;10.886;2023-04-24T10:21:34;1.23;;;1.05;;
9384;SDS011;4732;49.340;10.886;2023-04-24T10:24:00;1.77;;;1.10;;
9384;SDS011;4732;49.340;10.886;2023-04-24T10:26:28;1.27;;;1.17;;
9384;SDS011;4732;49.340;10.886;2023-04-24T10:28:54;1.42;;;1.00;;
9384;SDS011;4732;49.340;10.886;2023-04-24T10:31:23;1.80;;;1.00;;
9384;SDS011;4732;49.340;10.886;2023-04-24T10:33:49;1.95;;;1.17;;
9384;SDS011;4732;49.340;10.886;2023-04-24T10:36:16;1.55;;;1.05;;
9384;SDS011;4732;49.340;10.886;2023-04-24T10:38:42;2.17;;;0.70;;
9384;SDS011;4732;49.340;10.886;2023-04-24T10:41:11;0.93;;;0.70;;
9384;SDS011;4732;49.340;10.886;2023-04-24T10:43:41;1.00;;;0.70;;
9384;SDS011;4732;49.340;10.886;2023-04-24T10:46:07;0.90;;;0.90;;
9384;SDS011;4732;49.340;10.886;2023-04-24T10:48:35;1.23;;;0.90;;
9384;SDS011;4732;49.340;10.886;2023-04-24T10:51:10;1.00;;;1.00;;
9384;SDS011;4732;49.340;10.886;2023-04-24T10:53:36;4.93;;;1.00;;
9384;SDS011;4732;49.340;10.886;2023-04-24T11:01:30;1.27;;;1.02;;
9384;SDS011;4732;49.340;10.886;2023-04-24T11:03:58;2.65;;;0.90;;
9384;SDS011;4732;49.340;10.886;2023-04-24T11:06:35;1.80;;;1.10;;
9384;SDS011;4732;49.340;10.886;2023-04-24T11:09:08;1.25;;;0.70;;
9384;SDS011;4732;49.340;10.886;2023-04-24T11:11:35;1.50;;;0.88;;
9384;SDS011;4732;49.340;10.886;2023-04-24T11:14:03;0.85;;;0.60;;
9384;SDS011;4732;49.340;10.886;2023-04-24T11:16:44;0.95;;;0.60;;
9384;SDS011;4732;49.340;10.886;2023-04-24T11:21:59;0.85;;;0.75;;
9384;SDS011;4732;49.340;10.886;2023-04-24T11:24:27;1.40;;;0.70;;
9384;SDS011;4732;49.340;10.886;2023-04-24T11:26:58;1.23;;;1.13;;
9384;SDS011;4732;49.340;10.886;2023-04-24T11:32:38;1.13;;;1.05;;
9384;SDS011;4732;49.340;10.886;2023-04-24T11:37:39;2.05;;;1.45;;
9384;SDS011;4732;49.340;10.886;2023-04-24T11:40:07;2.08;;;1.35;;
9384;SDS011;4732;49.340;10.886;2023-04-24T11:42:38;2.15;;;1.20;;
9384;SDS011;4732;49.340;10.886;2023-04-24T11:45:14;4.47;;;1.73;;
9384;SDS011;4732;49.340;10.886;2023-04-24T11:47:46;3.03;;;1.67;;
9384;SDS011;4732;49.340;10.886;2023-04-24T11:50:13;3.88;;;1.60;;
9384;SDS011;4732;49.340;10.886;2023-04-24T11:52:42;2.65;;;1.35;;
9384;SDS011;4732;49.340;10.886;2023-04-24T11:57:46;1.38;;;1.27;;
9384;SDS011;4732;49.340;10.886;2023-04-24T12:00:18;2.70;;;1.35;;
9384;SDS011;4732;49.340;10.886;2023-04-24T12:02:45;1.98;;;1.30;;
9384;SDS011;4732;49.340;10.886;2023-04-24T12:05:21;1.35;;;1.25;;
9384;SDS011;4732;49.340;10.886;2023-04-24T12:07:48;4.03;;;1.55;;
9384;SDS011;4732;49.340;10.886;2023-04-24T12:10:14;1.40;;;1.20;;
9384;SDS011;4732;49.340;10.886;2023-04-24T12:12:47;2.15;;;1.40;;
9384;SDS011;4732;49.340;10.886;2023-04-24T12:15:15;4.85;;;1.60;;
9384;SDS011;4732;49.340;10.886;2023-04-24T12:17:41;4.50;;;1.13;;
9384;SDS011;4732;49.340;10.886;2023-04-24T12:20:08;1.30;;;1.20;;
9384;SDS011;4732;49.340;10.886;2023-04-24T12:22:47;1.30;;;1.20;;
9384;SDS011;4732;49.340;10.886;2023-04-24T12:25:16;1.63;;;1.40;;
9384;SDS011;4732;49.340;10.886;2023-04-24T12:27:43;1.10;;;0.98;;
9384;SDS011;4732;49.340;10.886;2023-04-24T12:30:11;1.20;;;1.10;;
9384;SDS011;4732;49.340;10.886;2023-04-24T12:32:42;2.72;;;1.20;;
9384;SDS011;4732;49.340;10.886;2023-04-24T12:35:09;4.30;;;1.30;;
9384;SDS011;4732;49.340;10.886;2023-04-24T12:37:35;1.80;;;1.30;;
9384;SDS011;4732;49.340;10.886;2023-04-24T12:42:34;2.67;;;1.40;;
9384;SDS011;4732;49.340;10.886;2023-04-24T12:45:07;2.17;;;1.58;;
9384;SDS011;4732;49.340;10.886;2023-04-24T12:47:33;1.92;;;1.40;;
9384;SDS011;4732;49.340;10.886;2023-04-24T12:49:59;2.50;;;1.75;;
9384;SDS011;4732;49.340;10.886;2023-04-24T12:52:26;3.92;;;1.70;;
9384;SDS011;4732;49.340;10.886;2023-04-24T12:54:53;1.60;;;1.50;;
9384;SDS011;4732;49.340;10.886;2023-04-24T12:57:20;1.90;;;1.50;;
9384;SDS011;4732;49.340;10.886;2023-04-24T12:59:46;1.83;;;1.70;;
9384;SDS011;4732;49.340;10.886;2023-04-24T13:02:11;2.83;;;1.50;;
9384;SDS011;4732;49.340;10.886;2023-04-24T13:04:37;2.03;;;1.40;;
9384;SDS011;4732;49.340;10.886;2023-04-24T13:07:03;1.50;;;1.40;;
9384;SDS011;4732;49.340;10.886;2023-04-24T13:09:29;1.85;;;1.40;;
9384;SDS011;4732;49.340;10.886;2023-04-24T13:11:55;1.70;;;1.20;;
9384;SDS011;4732;49.340;10.886;2023-04-24T13:14:21;2.45;;;1.40;;
9384;SDS011;4732;49.340;10.886;2023-04-24T13:16:47;1.20;;;1.10;;
9384;SDS011;4732;49.340;10.886;2023-04-24T13:19:13;1.95;;;1.60;;
9384;SDS011;4732;49.340;10.886;2023-04-24T13:21:38;2.13;;;1.20;;
9384;SDS011;4732;49.340;10.886;2023-04-24T13:24:04;1.92;;;1.52;;
9384;SDS011;4732;49.340;10.886;2023-04-24T13:26:30;2.40;;;1.45;;
9384;SDS011;4732;49.340;10.886;2023-04-24T13:28:56;1.88;;;1.77;;
9384;SDS011;4732;49.340;10.886;2023-04-24T13:31:21;1.67;;;1.58;;
9384;SDS011;4732;49.340;10.886;2023-04-24T13:33:47;3.03;;;2.22;;
9384;SDS011;4732;49.340;10.886;2023-04-24T13:36:13;4.97;;;2.30;;
9384;SDS011;4732;49.340;10.886;2023-04-24T13:38:38;3.47;;;2.38;;
9384;SDS011;4732;49.340;10.886;2023-04-24T13:41:04;2.65;;;2.35;;
9384;SDS011;4732;49.340;10.886;2023-04-24T13:43:30;2.90;;;2.17;;
9384;SDS011;4732;49.340;10.886;2023-04-24T13:45:55;2.67;;;2.47;;
9384;SDS011;4732;49.340;10.886;2023-04-24T13:48:21;3.63;;;2.90;;
9384;SDS011;4732;49.340;10.886;2023-04-24T13:50:46;6.45;;;2.42;;
9384;SDS011;4732;49.340;10.886;2023-04-24T13:53:14;2.40;;;2.20;;
9384;SDS011;4732;49.340;10.886;2023-04-24T13:55:40;2.75;;;2.10;;
9384;SDS011;4732;49.340;10.886;2023-04-24T13:58:05;3.05;;;2.40;;
9384;SDS011;4732;49.340;10.886;2023-04-24T14:00:31;2.10;;;1.90;;
9384;SDS011;4732;49.340;10.886;2023-04-24T14:02:57;2.10;;;1.90;;
9384;SDS011;4732;49.340;10.886;2023-04-24T14:05:22;2.05;;;1.85;;
9384;SDS011;4732;49.340;10.886;2023-04-24T14:07:48;4.10;;;1.80;;
9384;SDS011;4732;49.340;10.886;2023-04-24T14:10:13;2.22;;;1.90;;
9384;SDS011;4732;49.340;10.886;2023-04-24T14:12:39;3.78;;;1.85;;
9384;SDS011;4732;49.340;10.886;2023-04-24T14:15:05;3.38;;;1.92;;
9384;SDS011;4732;49.340;10.886;2023-04-24T14:17:31;4.50;;;1.88;;
9384;SDS011;4732;49.340;10.886;2023-04-24T14:19:56;2.20;;;2.00;;
9384;SDS011;4732;49.340;10.886;2023-04-24T14:22:24;2.95;;;2.00;;
9384;SDS011;4732;49.340;10.886;2023-04-24T14:24:50;2.38;;;1.83;;
9384;SDS011;4732;49.340;10.886;2023-04-24T14:27:15;2.60;;;2.13;;
9384;SDS011;4732;49.340;10.886;2023-04-24T14:29:41;3.42;;;3.00;;
9384;SDS011;4732;49.340;10.886;2023-04-24T14:32:06;7.75;;;5.78;;
9384;SDS011;4732;49.340;10.886;2023-04-24T14:34:33;3.78;;;2.30;;
9384;SDS011;4732;49.340;10.886;2023-04-24T14:36:59;2.70;;;2.50;;
9384;SDS011;4732;49.340;10.886;2023-04-24T14:39:25;1.52;;;1.25;;
9384;SDS011;4732;49.340;10.886;2023-04-24T14:41:50;12.80;;;9.20;;
9384;SDS011;4732;49.340;10.886;2023-04-24T14:44:16;6.15;;;4.10;;
9384;SDS011;4732;49.340;10.886;2023-04-24T14:46:41;5.32;;;4.82;;
9384;SDS011;4732;49.340;10.886;2023-04-24T14:49:07;2.38;;;2.10;;
9384;SDS011;4732;49.340;10.886;2023-04-24T14:51:35;1.95;;;1.55;;
9384;SDS011;4732;49.340;10.886;2023-04-24T14:54:01;1.83;;;1.70;;
9384;SDS011;4732;49.340;10.886;2023-04-24T14:56:26;2.13;;;1.92;;
9384;SDS011;4732;49.340;10.886;2023-04-24T14:58:52;1.90;;;1.77;;
9384;SDS011;4732;49.340;10.886;2023-04-24T15:01:18;1.85;;;1.70;;
9384;SDS011;4732;49.340;10.886;2023-04-24T15:03:43;2.40;;;2.10;;
9384;SDS011;4732;49.340;10.886;2023-04-24T15:06:09;2.38;;;2.05;;
9384;SDS011;4732;49.340;10.886;2023-04-24T15:08:34;2.35;;;2.13;;
9384;SDS011;4732;49.340;10.886;2023-04-24T15:11:00;2.50;;;1.80;;
9384;SDS011;4732;49.340;10.886;2023-04-24T15:13:26;2.30;;;1.90;;
9384;SDS011;4732;49.340;10.886;2023-04-24T15:15:51;2.38;;;2.15;;
9384;SDS011;4732;49.340;10.886;2023-04-24T15:18:17;3.47;;;2.42;;
9384;SDS011;4732;49.340;10.886;2023-04-24T15:20:42;4.07;;;2.45;;
9384;SDS011;4732;49.340;10.886;2023-04-24T15:23:08;2.67;;;2.25;;
9384;SDS011;4732;49.340;10.886;2023-04-24T15:25:34;6.50;;;2.40;;
9384;SDS011;4732;49.340;10.886;2023-04-24T15:28:00;3.80;;;2.80;;
9384;SDS011;4732;49.340;10.886;2023-04-24T15:30:26;2.40;;;2.20;;
9384;SDS011;4732;49.340;10.886;2023-04-24T15:32:52;3.67;;;2.30;;
9384;SDS011;4732;49.340;10.886;2023-04-24T15:35:17;3.60;;;2.65;;
9384;SDS011;4732;49.340;10.886;2023-04-24T15:37:43;4.20;;;2.17;;
9384;SDS011;4732;49.340;10.886;2023-04-24T15:40:09;3.50;;;2.30;;
9384;SDS011;4732;49.340;10.886;2023-04-24T15:42:38;3.28;;;2.58;;
9384;SDS011;4732;49.340;10.886;2023-04-24T15:45:04;2.45;;;2.25;;
9384;SDS011;4732;49.340;10.886;2023-04-24T15:47:29;3.08;;;2.30;;
9384;SDS011;4732;49.340;10.886;2023-04-24T15:49:56;4.57;;;2.85;;
9384;SDS011;4732;49.340;10.886;2023-04-24T15:52:22;2.80;;;2.38;;
9384;SDS011;4732;49.340;10.886;2023-04-24T15:54:48;2.50;;;2.28;;
9384;SDS011;4732;49.340;10.886;2023-04-24T15:57:14;2.47;;;2.25;;
9384;SDS011;4732;49.340;10.886;2023-04-24T15:59:39;3.58;;;2.38;;
9384;SDS011;4732;49.340;10.886;2023-04-24T16:02:05;2.60;;;2.40;;
9384;SDS011;4732;49.340;10.886;2023-04-24T16:04:33;4.22;;;2.15;;
9384;SDS011;4732;49.340;10.886;2023-04-24T16:06:59;3.97;;;2.30;;
9384;SDS011;4732;49.340;10.886;2023-04-24T16:09:25;2.50;;;2.20;;
9384;SDS011;4732;49.340;10.886;2023-04-24T16:11:50;3.05;;;2.15;;
9384;SDS011;4732;49.340;10.886;2023-04-24T16:14:16;3.80;;;2.38;;
9384;SDS011;4732;49.340;10.886;2023-04-24T16:16:41;2.28;;;2.08;;
9384;SDS011;4732;49.340;10.886;2023-04-24T16:19:07;3.70;;;2.20;;
9384;SDS011;4732;49.340;10.886;2023-04-24T16:21:33;2.72;;;2.40;;
9384;SDS011;4732;49.340;10.886;2023-04-24T16:23:58;3.95;;;2.65;;
9384;SDS011;4732;49.340;10.886;2023-04-24T16:26:24;4.00;;;2.90;;
9384;SDS011;4732;49.340;10.886;2023-04-24T16:28:50;2.72;;;2.20;;
9384;SDS011;4732;49.340;10.886;2023-04-24T16:31:16;2.90;;;1.98;;
9384;SDS011;4732;49.340;10.886;2023-04-24T16:33:41;2.75;;;2.40;;
9384;SDS011;4732;49.340;10.886;2023-04-24T16:36:07;2.60;;;2.20;;
9384;SDS011;4732;49.340;10.886;2023-04-24T16:38:33;3.17;;;2.15;;
9384;SDS011;4732;49.340;10.886;2023-04-24T16:40:59;2.67;;;2.17;;
9384;SDS011;4732;49.340;10.886;2023-04-24T16:43:25;3.10;;;2.30;;
9384;SDS011;4732;49.340;10.886;2023-04-24T16:45:51;4.10;;;2.40;;
9384;SDS011;4732;49.340;10.886;2023-04-24T16:48:17;3.35;;;2.60;;
9384;SDS011;4732;49.340;10.886;2023-04-24T16:50:43;2.60;;;2.40;;
9384;SDS011;4732;49.340;10.886;2023-04-24T16:53:10;2.95;;;2.53;;
9384;SDS011;4732;49.340;10.886;2023-04-24T16:55:35;3.22;;;2.47;;
9384;SDS011;4732;49.340;10.886;2023-04-24T16:58:02;3.70;;;2.75;;
9384;SDS011;4732;49.340;10.886;2023-04-24T17:00:27;4.95;;;3.20;;
9384;SDS011;4732;49.340;10.886;2023-04-24T17:02:53;3.10;;;2.78;;
9384;SDS011;4732;49.340;10.886;2023-04-24T17:05:18;5.20;;;2.88;;
9384;SDS011;4732;49.340;10.886;2023-04-24T17:07:47;6.30;;;2.85;;
9384;SDS011;4732;49.340;10.886;2023-04-24T17:10:13;2.95;;;2.65;;
9384;SDS011;4732;49.340;10.886;2023-04-24T17:12:38;5.35;;;2.97;;
9384;SDS011;4732;49.340;10.886;2023-04-24T17:15:04;6.57;;;2.80;;
9384;SDS011;4732;49.340;10.886;2023-04-24T17:17:30;3.92;;;2.72;;
9384;SDS011;4732;49.340;10.886;2023-04-24T17:19:56;4.20;;;2.67;;
9384;SDS011;4732;49.340;10.886;2023-04-24T17:22:21;3.53;;;2.90;;
9384;SDS011;4732;49.340;10.886;2023-04-24T17:24:47;5.15;;;3.20;;
9384;SDS011;4732;49.340;10.886;2023-04-24T17:27:12;4.22;;;3.25;;
9384;SDS011;4732;49.340;10.886;2023-04-24T17:29:38;7.03;;;3.60;;
9384;SDS011;4732;49.340;10.886;2023-04-24T17:32:04;3.53;;;3.22;;
9384;SDS011;4732;49.340;10.886;2023-04-24T17:34:29;3.45;;;2.20;;
9384;SDS011;4732;49.340;10.886;2023-04-24T17:36:55;2.90;;;2.20;;
9384;SDS011;4732;49.340;10.886;2023-04-24T17:39:21;4.38;;;2.40;;
9384;SDS011;4732;49.340;10.886;2023-04-24T17:41:46;5.18;;;3.10;;
9384;SDS011;4732;49.340;10.886;2023-04-24T17:44:12;4.30;;;3.50;;
9384;SDS011;4732;49.340;10.886;2023-04-24T17:46:37;4.93;;;4.20;;
9384;SDS011;4732;49.340;10.886;2023-04-24T17:49:03;6.03;;;5.30;;
9384;SDS011;4732;49.340;10.886;2023-04-24T17:51:28;4.28;;;3.15;;
9384;SDS011;4732;49.340;10.886;2023-04-24T17:53:54;3.50;;;3.20;;
9384;SDS011;4732;49.340;10.886;2023-04-24T17:56:20;5.33;;;4.67;;
9384;SDS011;4732;49.340;10.886;2023-04-24T17:58:45;6.23;;;5.63;;
9384;SDS011;4732;49.340;10.886;2023-04-24T18:01:11;5.97;;;4.95;;
9384;SDS011;4732;49.340;10.886;2023-04-24T18:03:36;5.43;;;3.23;;
9384;SDS011;4732;49.340;10.886;2023-04-24T18:06:03;4.78;;;4.38;;
9384;SDS011;4732;49.340;10.886;2023-04-24T18:08:29;6.40;;;5.45;;
9384;SDS011;4732;49.340;10.886;2023-04-24T18:10:55;5.90;;;4.30;;
9384;SDS011;4732;49.340;10.886;2023-04-24T18:13:22;5.43;;;4.30;;
9384;SDS011;4732;49.340;10.886;2023-04-24T18:15:47;5.05;;;3.85;;
9384;SDS011;4732;49.340;10.886;2023-04-24T18:18:13;3.67;;;3.22;;